Time;durP1;ratioP1;P1;durP2;ratioP2;P2;SDS_P1;SDS_P2;PMS_P1;PMS_P2;Temp;Humidity;BMP_temperature;BMP_pressure;BME280_temperature;BME280_humidity;BME280_pressure;Samples;Min_cycle;Max_cycle;Signal;HPM_P1;HPM_P2
2022/08/18 00:01:07;;;;;;;9.90;6.95;;;;;;;;;;5004075;28;20413;-68
2022/08/18 00:03:33;;;;;;;8.18;7.00;;;;;;;;;;5003434;28;20041;-70
2022/08/18 00:05:58;;;;;;;7.80;6.38;;;;;;;;;;5004787;28;20046;-68
2022/08/18 00:08:23;;;;;;;11.75;6.57;;;;;;;;;;5003719;28;20034;-69
2022/08/18 00:10:49;;;;;;;8.15;6.50;;;;;;;;;;5003606;28;20026;-68
2022/08/18 00:13:14;;;;;;;7.63;5.82;;;;;;;;;;5002760;28;20998;-69
2022/08/18 00:15:39;;;;;;;8.13;5.88;;;;;;;;;;5006869;28;20046;-69
2022/08/18 00:18:05;;;;;;;7.28;6.00;;;;;;;;;;5007847;28;20401;-70
2022/08/18 00:20:30;;;;;;;8.52;6.47;;;;;;;;;;5006986;28;20092;-69
2022/08/18 00:22:56;;;;;;;6.90;6.18;;;;;;;;;;5004305;28;20025;-69
2022/08/18 00:25:23;;;;;;;7.97;6.72;;;;;;;;;;5008291;28;20032;-67
2022/08/18 00:27:48;;;;;;;7.57;6.35;;;;;;;;;;5006803;28;20034;-69
2022/08/18 00:30:17;;;;;;;7.10;5.95;;;;;;;;;;5005077;28;20049;-68
2022/08/18 00:32:47;;;;;;;8.05;5.80;;;;;;;;;;5008582;28;20034;-70
2022/08/18 00:35:25;;;;;;;7.18;6.05;;;;;;;;;;5008432;28;20105;-70
2022/08/18 00:37:51;;;;;;;7.82;5.70;;;;;;;;;;5008834;28;20033;-69
2022/08/18 00:40:20;;;;;;;10.30;5.75;;;;;;;;;;5007226;28;20025;-70
2022/08/18 00:42:50;;;;;;;7.80;5.82;;;;;;;;;;5007506;28;20048;-69
2022/08/18 00:45:24;;;;;;;5.97;5.38;;;;;;;;;;5008830;28;20037;-68
2022/08/18 00:47:49;;;;;;;7.20;5.15;;;;;;;;;;5010092;28;20072;-68
2022/08/18 00:50:23;;;;;;;7.80;5.60;;;;;;;;;;5006794;28;20046;-68
2022/08/18 00:52:54;;;;;;;5.93;5.07;;;;;;;;;;5007105;28;20025;-68
2022/08/18 00:55:21;;;;;;;6.00;5.30;;;;;;;;;;5009742;28;20049;-68
2022/08/18 00:57:50;;;;;;;6.80;5.15;;;;;;;;;;5008249;28;20046;-68
2022/08/18 01:00:16;;;;;;;6.43;5.18;;;;;;;;;;5008263;28;20102;-69
2022/08/18 01:02:45;;;;;;;6.20;5.60;;;;;;;;;;5007620;28;20045;-68
2022/08/18 01:05:19;;;;;;;8.55;6.10;;;;;;;;;;5008178;28;22136;-70
2022/08/18 01:07:47;;;;;;;8.35;5.43;;;;;;;;;;5010468;28;20440;-69
2022/08/18 01:10:17;;;;;;;7.90;5.38;;;;;;;;;;5004806;28;20053;-69
2022/08/18 01:12:45;;;;;;;7.53;6.53;;;;;;;;;;5005473;28;20038;-69
2022/08/18 01:15:12;;;;;;;6.57;5.50;;;;;;;;;;5006474;28;20136;-69
2022/08/18 01:23:19;;;;;;;8.32;6.13;;;;;;;;;;5005995;28;20123;-69
2022/08/18 01:26:03;;;;;;;6.45;5.82;;;;;;;;;;5007967;28;20026;-68
2022/08/18 01:28:36;;;;;;;8.10;5.70;;;;;;;;;;5004759;28;20123;-68
2022/08/18 01:31:03;;;;;;;6.45;5.82;;;;;;;;;;5005182;28;20340;-68
2022/08/18 01:33:35;;;;;;;6.63;5.82;;;;;;;;;;5006961;28;20486;-70
2022/08/18 01:36:17;;;;;;;8.35;6.65;;;;;;;;;;5005774;28;20038;-68
2022/08/18 01:38:45;;;;;;;9.75;7.28;;;;;;;;;;5007946;28;20042;-68
2022/08/18 01:41:11;;;;;;;11.32;7.55;;;;;;;;;;5004618;28;20052;-70
2022/08/18 01:43:36;;;;;;;8.32;7.38;;;;;;;;;;5007595;28;20026;-69
2022/08/18 01:46:03;;;;;;;10.50;7.50;;;;;;;;;;5006465;28;20505;-69
2022/08/18 01:48:36;;;;;;;8.10;6.88;;;;;;;;;;5005105;28;20574;-69
2022/08/18 01:51:07;;;;;;;8.93;7.00;;;;;;;;;;5004546;28;20045;-68
2022/08/18 01:53:33;;;;;;;10.27;7.00;;;;;;;;;;5003912;28;20048;-68
2022/08/18 01:55:59;;;;;;;8.52;6.82;;;;;;;;;;5004528;28;20026;-70
2022/08/18 01:58:27;;;;;;;8.52;6.70;;;;;;;;;;5005068;28;20029;-69
2022/08/18 02:01:00;;;;;;;10.10;6.72;;;;;;;;;;5007790;28;20145;-69
2022/08/18 02:03:29;;;;;;;;;;;;;;;;;;5004655;28;20030;-66
2022/08/18 02:06:00;;;;;;;7.65;6.63;;;;;;;;;;5006115;28;19999;-68
2022/08/18 02:08:26;;;;;;;9.38;6.97;;;;;;;;;;5004818;28;20092;-68
2022/08/18 02:10:51;;;;;;;7.75;6.30;;;;;;;;;;5006214;28;20041;-69
2022/08/18 02:13:17;;;;;;;7.80;7.00;;;;;;;;;;5006126;28;20105;-68
2022/08/18 02:15:43;;;;;;;10.18;6.70;;;;;;;;;;5005956;28;20045;-68
2022/08/18 02:18:17;;;;;;;10.65;6.80;;;;;;;;;;5004381;28;20092;-69
2022/08/18 02:20:43;;;;;;;7.15;6.00;;;;;;;;;;5002995;28;20068;-69
2022/08/18 02:23:10;;;;;;;7.18;6.07;;;;;;;;;;5007002;28;20446;-69
2022/08/18 02:25:36;;;;;;;9.70;6.47;;;;;;;;;;5005205;28;20128;-69
2022/08/18 02:28:02;;;;;;;8.43;6.80;;;;;;;;;;5006569;28;20053;-69
2022/08/18 02:30:27;;;;;;;8.35;6.63;;;;;;;;;;5005029;28;20037;-69
2022/08/18 02:32:53;;;;;;;8.43;6.43;;;;;;;;;;5003733;28;20038;-68
2022/08/18 02:35:18;;;;;;;7.75;6.30;;;;;;;;;;5004842;28;20045;-69
2022/08/18 02:37:46;;;;;;;7.03;6.20;;;;;;;;;;5001707;28;20033;-69
2022/08/18 02:40:13;;;;;;;6.97;6.28;;;;;;;;;;5005324;28;20038;-69
2022/08/18 02:42:39;;;;;;;6.88;6.03;;;;;;;;;;5004432;28;20042;-70
2022/08/18 02:45:05;;;;;;;8.23;6.85;;;;;;;;;;5004591;28;20080;-69
2022/08/18 02:47:31;;;;;;;7.60;6.78;;;;;;;;;;5006934;28;20092;-69
2022/08/18 02:49:56;;;;;;;10.07;6.90;;;;;;;;;;5006082;28;20021;-69
2022/08/18 02:52:22;;;;;;;7.57;6.70;;;;;;;;;;5004674;28;20490;-68
2022/08/18 02:54:48;;;;;;;7.57;6.53;;;;;;;;;;5005482;28;20037;-68
2022/08/18 02:57:13;;;;;;;7.25;6.53;;;;;;;;;;5002641;28;20030;-68
2022/08/18 02:59:39;;;;;;;7.70;6.53;;;;;;;;;;5001843;28;20068;-69
2022/08/18 03:02:06;;;;;;;7.57;6.60;;;;;;;;;;5004811;28;20117;-68
2022/08/18 03:04:32;;;;;;;7.95;6.60;;;;;;;;;;5004176;28;20045;-68
2022/08/18 03:07:01;;;;;;;7.38;6.43;;;;;;;;;;5005550;28;20065;-68
2022/08/18 03:09:27;;;;;;;9.25;6.40;;;;;;;;;;5004827;28;20042;-72
2022/08/18 03:11:53;;;;;;;7.97;6.18;;;;;;;;;;5004446;28;20517;-69
2022/08/18 03:14:19;;;;;;;10.00;6.70;;;;;;;;;;5003686;28;20034;-68
2022/08/18 03:16:46;;;;;;;8.85;6.22;;;;;;;;;;5005083;28;20262;-71
2022/08/18 03:19:15;;;;;;;10.02;6.88;;;;;;;;;;5003486;28;20033;-70
2022/08/18 03:21:41;;;;;;;7.40;6.32;;;;;;;;;;5006168;28;20041;-69
2022/08/18 03:24:07;;;;;;;10.05;6.70;;;;;;;;;;5001054;28;20045;-69
2022/08/18 03:26:32;;;;;;;8.20;6.28;;;;;;;;;;5001137;28;20038;-69
2022/08/18 03:28:59;;;;;;;9.93;6.90;;;;;;;;;;5004759;28;20138;-70
2022/08/18 03:31:27;;;;;;;7.35;6.57;;;;;;;;;;5005346;28;20040;-70
2022/08/18 03:33:54;;;;;;;7.32;5.95;;;;;;;;;;5002792;28;20030;-70
2022/08/18 03:36:22;;;;;;;7.65;6.40;;;;;;;;;;5003313;28;20034;-68
2022/08/18 03:38:48;;;;;;;7.72;6.43;;;;;;;;;;5014373;28;20046;-69
2022/08/18 03:41:16;;;;;;;6.85;5.78;;;;;;;;;;5004499;28;20048;-67
2022/08/18 03:43:41;;;;;;;6.47;5.63;;;;;;;;;;5002407;28;20034;-69
2022/08/18 03:46:09;;;;;;;7.80;6.28;;;;;;;;;;5001081;28;20030;-69
2022/08/18 03:48:39;;;;;;;16.92;11.93;;;;;;;;;;5005031;28;20045;-69
2022/08/18 03:51:07;;;;;;;7.70;6.93;;;;;;;;;;5005691;28;20244;-69
2022/08/18 03:53:34;;;;;;;9.82;6.85;;;;;;;;;;5011089;28;20095;-70
2022/08/18 03:56:00;;;;;;;9.23;6.22;;;;;;;;;;5007807;28;20053;-69
2022/08/18 03:58:26;;;;;;;8.45;6.15;;;;;;;;;;5009798;28;20118;-69
2022/08/18 04:00:52;;;;;;;7.07;5.70;;;;;;;;;;5008777;28;20046;-69
2022/08/18 04:03:17;;;;;;;8.68;6.97;;;;;;;;;;5007272;28;20635;-69
2022/08/18 04:05:43;;;;;;;8.50;6.65;;;;;;;;;;5008251;28;20434;-68
2022/08/18 04:08:09;;;;;;;8.63;6.57;;;;;;;;;;5006524;28;20036;-70
2022/08/18 04:10:34;;;;;;;8.43;6.32;;;;;;;;;;5012280;28;20038;-68
2022/08/18 04:13:04;;;;;;;6.95;6.25;;;;;;;;;;5006479;28;20034;-68
2022/08/18 04:15:29;;;;;;;7.78;6.60;;;;;;;;;;5009526;28;20111;-68
2022/08/18 04:17:58;;;;;;;7.40;6.32;;;;;;;;;;5006340;28;20092;-68
2022/08/18 04:20:24;;;;;;;7.28;6.47;;;;;;;;;;5006754;28;20049;-69
2022/08/18 04:22:49;;;;;;;7.65;6.63;;;;;;;;;;5006861;28;20034;-69
2022/08/18 04:25:14;;;;;;;9.90;6.10;;;;;;;;;;5008689;28;20054;-69
2022/08/18 04:27:41;;;;;;;6.72;6.03;;;;;;;;;;5005317;28;20117;-69
2022/08/18 04:30:08;;;;;;;6.40;5.75;;;;;;;;;;5011276;28;20408;-69
2022/08/18 04:32:33;;;;;;;7.60;5.78;;;;;;;;;;5002379;28;20038;-69
2022/08/18 04:34:59;;;;;;;8.68;6.22;;;;;;;;;;5005669;28;20072;-69
2022/08/18 04:37:25;;;;;;;10.40;6.00;;;;;;;;;;5007541;28;20037;-69
2022/08/18 04:39:50;;;;;;;11.65;6.55;;;;;;;;;;5007122;28;20049;-69
2022/08/18 04:42:16;;;;;;;15.48;6.10;;;;;;;;;;5005223;28;20612;-69
2022/08/18 04:44:41;;;;;;;12.70;5.72;;;;;;;;;;5007482;28;20049;-69
2022/08/18 04:47:08;;;;;;;11.00;6.00;;;;;;;;;;5007992;28;20032;-69
2022/08/18 04:49:34;;;;;;;11.60;6.13;;;;;;;;;;5006472;28;20030;-69
2022/08/18 04:54:44;;;;;;;10.40;6.20;;;;;;;;;;5007339;28;20040;-69
2022/08/18 04:57:16;;;;;;;9.30;6.35;;;;;;;;;;5006028;28;20478;-69
2022/08/18 04:59:43;;;;;;;12.65;6.13;;;;;;;;;;5004798;28;20600;-69
2022/08/18 05:02:10;;;;;;;10.77;6.38;;;;;;;;;;5005638;28;20024;-68
2022/08/18 05:04:37;;;;;;;11.18;6.28;;;;;;;;;;5007707;28;20090;-69
2022/08/18 05:07:05;;;;;;;13.15;6.90;;;;;;;;;;5006008;28;20121;-69
2022/08/18 05:09:31;;;;;;;8.90;6.30;;;;;;;;;;5008530;28;20042;-68
2022/08/18 05:11:56;;;;;;;10.77;6.93;;;;;;;;;;5005337;28;20048;-69
2022/08/18 05:14:22;;;;;;;8.00;6.57;;;;;;;;;;5004462;28;20060;-70
2022/08/18 05:16:48;;;;;;;7.93;6.13;;;;;;;;;;5005874;28;20044;-68
2022/08/18 05:19:14;;;;;;;9.98;6.45;;;;;;;;;;5004855;28;20045;-68
2022/08/18 05:21:40;;;;;;;8.35;6.78;;;;;;;;;;5006886;28;20040;-68
2022/08/18 05:24:07;;;;;;;9.30;6.63;;;;;;;;;;5006090;28;20041;-68
2022/08/18 05:26:33;;;;;;;9.25;6.55;;;;;;;;;;5006237;28;20729;-68
2022/08/18 05:28:59;;;;;;;9.70;5.97;;;;;;;;;;5006041;28;20096;-69
2022/08/18 05:31:26;;;;;;;10.07;6.63;;;;;;;;;;5006937;28;20026;-68
2022/08/18 05:33:54;;;;;;;9.48;6.35;;;;;;;;;;5006298;28;20041;-68
2022/08/18 05:36:45;;;;;;;9.50;6.30;;;;;;;;;;5005750;28;20049;-69
2022/08/18 05:39:19;;;;;;;13.82;6.35;;;;;;;;;;5003753;28;20037;-68
2022/08/18 05:41:57;;;;;;;8.52;6.10;;;;;;;;;;5006241;28;20101;-69
2022/08/18 05:44:28;;;;;;;10.63;6.63;;;;;;;;;;5004679;28;20064;-69
2022/08/18 05:47:03;;;;;;;8.25;6.28;;;;;;;;;;5004609;28;20072;-67
2022/08/18 05:49:29;;;;;;;8.70;6.68;;;;;;;;;;5006869;28;20026;-68
2022/08/18 05:52:03;;;;;;;9.75;6.43;;;;;;;;;;5006521;28;20037;-68
2022/08/18 05:57:26;;;;;;;9.43;6.53;;;;;;;;;;5005057;28;20116;-67
2022/08/18 05:59:53;;;;;;;9.43;6.55;;;;;;;;;;5003309;28;20045;-66
2022/08/18 06:02:41;;;;;;;9.63;7.20;;;;;;;;;;5004374;28;20042;-70
2022/08/18 06:05:11;;;;;;;10.20;7.22;;;;;;;;;;5002872;28;20092;-69
2022/08/18 06:07:48;;;;;;;10.18;7.22;;;;;;;;;;5006670;28;20030;-68
2022/08/18 06:10:14;;;;;;;7.55;6.75;;;;;;;;;;5006136;28;20672;-68
2022/08/18 06:12:50;;;;;;;8.63;7.20;;;;;;;;;;4998509;28;20060;-69
2022/08/18 06:15:39;;;;;;;9.20;7.65;;;;;;;;;;5005661;28;20628;-69
2022/08/18 06:18:24;;;;;;;9.43;7.13;;;;;;;;;;5003279;28;20128;-69
2022/08/18 06:21:20;;;;;;;9.13;6.72;;;;;;;;;;5003874;28;20041;-69
2022/08/18 06:24:00;;;;;;;9.65;7.32;;;;;;;;;;5002949;28;20133;-68
2022/08/18 06:26:49;;;;;;;9.18;7.20;;;;;;;;;;5002211;28;20045;-69
2022/08/18 06:29:21;;;;;;;8.10;7.20;;;;;;;;;;5004255;28;20719;-68
2022/08/18 06:32:09;;;;;;;7.78;6.97;;;;;;;;;;5005299;28;20407;-68
2022/08/18 06:35:01;;;;;;;9.27;6.95;;;;;;;;;;5004303;28;20216;-68
2022/08/18 06:40:39;;;;;;;9.25;6.90;;;;;;;;;;4972574;28;20050;-69
2022/08/18 06:43:11;;;;;;;8.57;7.00;;;;;;;;;;5004019;28;20053;-68
2022/08/18 06:45:40;;;;;;;9.60;7.90;;;;;;;;;;5006154;28;20045;-69
2022/08/18 06:48:31;;;;;;;10.38;7.05;;;;;;;;;;5004923;28;20132;-69
2022/08/18 06:50:59;;;;;;;9.15;6.68;;;;;;;;;;5003466;28;20670;-68
2022/08/18 06:53:51;;;;;;;8.25;6.82;;;;;;;;;;5004156;28;20078;-69
2022/08/18 06:56:37;;;;;;;9.32;7.30;;;;;;;;;;4998673;28;20489;-67
2022/08/18 06:59:24;;;;;;;8.77;7.50;;;;;;;;;;5003450;28;20100;-69
2022/08/18 07:02:24;;;;;;;12.75;8.93;;;;;;;;;;5006184;28;20108;-69
2022/08/18 07:05:06;;;;;;;18.77;9.07;;;;;;;;;;4999405;28;20045;-68
2022/08/18 07:07:38;;;;;;;9.45;7.93;;;;;;;;;;5004276;28;20398;-69
2022/08/18 07:10:35;;;;;;;10.63;8.73;;;;;;;;;;5002056;28;20038;-67
2022/08/18 07:13:25;;;;;;;11.18;8.70;;;;;;;;;;4998223;28;20152;-68
2022/08/18 07:15:52;;;;;;;8.65;7.60;;;;;;;;;;5003495;28;20041;-68
2022/08/18 07:18:24;;;;;;;10.30;8.23;;;;;;;;;;5001542;28;20100;-68
2022/08/18 07:20:54;;;;;;;9.02;7.85;;;;;;;;;;5002701;28;20033;-68
2022/08/18 07:23:32;;;;;;;9.55;7.53;;;;;;;;;;5002000;28;20132;-67
2022/08/18 07:26:14;;;;;;;9.00;7.40;;;;;;;;;;5003091;28;20125;-68
2022/08/18 07:28:46;;;;;;;10.57;7.60;;;;;;;;;;5001542;28;20045;-68
2022/08/18 07:31:33;;;;;;;10.48;7.20;;;;;;;;;;5000338;28;20042;-68
2022/08/18 07:34:11;;;;;;;10.63;7.53;;;;;;;;;;5002113;28;20033;-69
2022/08/18 07:36:53;;;;;;;8.95;6.97;;;;;;;;;;5001139;28;20046;-68
2022/08/18 07:39:26;;;;;;;7.03;6.40;;;;;;;;;;5003353;28;20060;-67
2022/08/18 07:42:01;;;;;;;14.07;7.15;;;;;;;;;;5003501;28;20049;-67
2022/08/18 07:44:44;;;;;;;8.52;6.75;;;;;;;;;;5000831;28;20045;-69
2022/08/18 07:47:17;;;;;;;9.93;7.80;;;;;;;;;;5002052;28;20029;-69
2022/08/18 07:49:45;;;;;;;8.60;7.47;;;;;;;;;;5004706;28;20116;-68
2022/08/18 07:52:20;;;;;;;7.95;7.15;;;;;;;;;;5002049;28;20038;-68
2022/08/18 07:55:14;;;;;;;9.00;7.88;;;;;;;;;;5006185;28;20061;-68
2022/08/18 07:57:49;;;;;;;9.23;8.18;;;;;;;;;;5004257;28;20042;-68
2022/08/18 08:00:43;;;;;;;8.70;7.85;;;;;;;;;;5002568;28;20041;-68
2022/08/18 08:03:27;;;;;;;9.25;7.88;;;;;;;;;;5004350;28;20069;-68
2022/08/18 08:06:27;;;;;;;11.57;8.07;;;;;;;;;;5002860;28;20409;-69
2022/08/18 08:09:03;;;;;;;8.77;7.40;;;;;;;;;;5005250;28;20099;-69
2022/08/18 08:11:54;;;;;;;9.27;7.95;;;;;;;;;;5003913;28;20374;-68
2022/08/18 08:14:48;;;;;;;10.15;7.60;;;;;;;;;;5004371;28;20107;-68
2022/08/18 08:17:45;;;;;;;9.77;7.43;;;;;;;;;;5001728;28;20128;-68
2022/08/18 08:20:25;;;;;;;9.10;7.05;;;;;;;;;;5003381;28;20120;-68
2022/08/18 08:22:57;;;;;;;8.35;7.55;;;;;;;;;;5002498;28;20026;-68
2022/08/18 08:25:44;;;;;;;9.27;7.47;;;;;;;;;;5003639;28;20458;-68
2022/08/18 08:28:16;;;;;;;11.77;8.05;;;;;;;;;;4999277;28;20042;-68
2022/08/18 08:31:08;;;;;;;8.38;7.57;;;;;;;;;;5002425;28;20046;-69
2022/08/18 08:33:40;;;;;;;18.30;8.20;;;;;;;;;;5001507;28;20735;-69
2022/08/18 08:36:27;;;;;;;17.73;7.90;;;;;;;;;;5005632;28;20400;-69
2022/08/18 08:39:21;;;;;;;8.85;7.40;;;;;;;;;;5006373;28;20145;-68
2022/08/18 08:42:11;;;;;;;9.43;7.45;;;;;;;;;;5009575;28;20402;-69
2022/08/18 08:44:54;;;;;;;9.32;7.90;;;;;;;;;;5007057;28;20052;-69
2022/08/18 08:47:25;;;;;;;;;;;;;;;;;;5003926;28;20045;-68
2022/08/18 08:49:58;;;;;;;9.30;7.38;;;;;;;;;;5006495;28;19921;-67
2022/08/18 08:52:34;;;;;;;7.63;6.80;;;;;;;;;;5006443;28;20033;-67
2022/08/18 08:55:09;;;;;;;10.13;7.15;;;;;;;;;;5006395;28;20057;-67
2022/08/18 08:57:41;;;;;;;8.63;6.65;;;;;;;;;;5009004;28;20052;-69
2022/08/18 09:00:10;;;;;;;11.40;7.93;;;;;;;;;;5006531;28;20052;-67
2022/08/18 09:02:51;;;;;;;11.15;8.15;;;;;;;;;;5005365;28;20038;-68
2022/08/18 09:05:40;;;;;;;10.68;8.43;;;;;;;;;;5003437;28;20139;-69
2022/08/18 09:08:25;;;;;;;12.60;7.75;;;;;;;;;;5004542;28;20034;-69
2022/08/18 09:11:08;;;;;;;8.57;7.72;;;;;;;;;;5007758;28;20034;-67
2022/08/18 09:13:50;;;;;;;8.70;7.55;;;;;;;;;;5003940;28;20505;-67
2022/08/18 09:16:35;;;;;;;9.65;8.18;;;;;;;;;;5004372;28;20054;-67
2022/08/18 09:19:32;;;;;;;9.13;8.20;;;;;;;;;;5006238;28;20068;-68
2022/08/18 09:21:59;;;;;;;11.30;7.60;;;;;;;;;;5006233;28;20466;-69
2022/08/18 09:24:39;;;;;;;9.27;7.80;;;;;;;;;;5004014;28;20041;-68
2022/08/18 09:27:36;;;;;;;9.18;8.20;;;;;;;;;;5005025;28;20044;-69
2022/08/18 09:30:06;;;;;;;9.48;8.23;;;;;;;;;;5002367;28;20041;-69
2022/08/18 09:32:54;;;;;;;9.90;8.90;;;;;;;;;;5005502;28;20359;-69
2022/08/18 09:35:41;;;;;;;9.20;8.30;;;;;;;;;;5004926;28;20030;-68
2022/08/18 09:41:30;;;;;;;;;;;;;;;;;;5006648;28;20390;-66
2022/08/18 09:44:10;;;;;;;11.70;7.75;;;;;;;;;;5007474;28;19928;-67
2022/08/18 09:46:41;;;;;;;9.32;7.97;;;;;;;;;;5009338;28;20033;-68
2022/08/18 09:49:22;;;;;;;12.13;8.80;;;;;;;;;;5004645;28;20438;-66
2022/08/18 09:51:57;;;;;;;10.85;9.00;;;;;;;;;;5007147;28;20048;-69
2022/08/18 09:54:29;;;;;;;10.02;8.27;;;;;;;;;;5003252;28;20485;-69
2022/08/18 09:57:08;;;;;;;9.95;8.70;;;;;;;;;;5005480;28;20105;-68
2022/08/18 09:59:37;;;;;;;9.70;8.48;;;;;;;;;;5007759;28;20040;-68
2022/08/18 10:02:24;;;;;;;10.68;8.52;;;;;;;;;;5004980;28;20034;-69
2022/08/18 10:05:15;;;;;;;10.90;9.15;;;;;;;;;;4992342;28;20463;-68
2022/08/18 10:07:54;;;;;;;10.23;8.43;;;;;;;;;;5005995;28;20057;-69
2022/08/18 10:10:22;;;;;;;10.80;8.63;;;;;;;;;;5004103;28;20128;-68
2022/08/18 10:13:06;;;;;;;10.48;8.07;;;;;;;;;;5005560;28;20054;-69
2022/08/18 10:15:47;;;;;;;11.20;8.38;;;;;;;;;;5008114;28;20037;-69
2022/08/18 10:18:49;;;;;;;10.52;8.70;;;;;;;;;;5006647;28;20109;-67
2022/08/18 10:21:26;;;;;;;12.73;9.38;;;;;;;;;;5006398;28;20037;-69
2022/08/18 10:23:54;;;;;;;11.55;9.38;;;;;;;;;;5007516;28;20049;-68
2022/08/18 10:26:29;;;;;;;11.90;9.55;;;;;;;;;;5006573;28;20084;-68
2022/08/18 10:28:57;;;;;;;12.15;9.45;;;;;;;;;;5007178;28;20057;-68
2022/08/18 10:31:23;;;;;;;10.93;8.82;;;;;;;;;;5010248;28;20087;-67
2022/08/18 10:34:05;;;;;;;10.98;9.57;;;;;;;;;;5006739;28;20085;-68
2022/08/18 10:36:40;;;;;;;11.80;9.82;;;;;;;;;;5009174;28;20058;-68
2022/08/18 10:39:11;;;;;;;10.90;9.43;;;;;;;;;;5007149;28;20041;-69
2022/08/18 10:41:43;;;;;;;10.52;9.02;;;;;;;;;;5006383;28;20342;-69
2022/08/18 10:44:15;;;;;;;9.57;8.57;;;;;;;;;;4999979;28;20088;-69
2022/08/18 10:46:42;;;;;;;10.10;9.10;;;;;;;;;;5005907;28;20567;-70
2022/08/18 10:49:11;;;;;;;10.60;9.50;;;;;;;;;;5004414;28;20037;-69
2022/08/18 10:52:03;;;;;;;11.50;9.70;;;;;;;;;;5003656;28;20077;-69
2022/08/18 10:54:34;;;;;;;12.60;9.75;;;;;;;;;;5003368;28;20110;-69
2022/08/18 10:57:12;;;;;;;10.10;9.07;;;;;;;;;;5006920;28;20148;-68
2022/08/18 11:00:12;;;;;;;11.65;8.73;;;;;;;;;;5001186;28;20375;-69
2022/08/18 11:02:56;;;;;;;9.98;8.13;;;;;;;;;;4978443;28;20798;-69
2022/08/18 11:05:24;;;;;;;9.40;8.35;;;;;;;;;;4998636;28;20057;-69
2022/08/18 11:07:57;;;;;;;10.65;8.82;;;;;;;;;;5002026;28;20043;-69
2022/08/18 11:10:36;;;;;;;9.77;8.30;;;;;;;;;;5005589;28;20065;-70
2022/08/18 11:13:34;;;;;;;9.20;8.02;;;;;;;;;;5004039;28;20152;-69
2022/08/18 11:16:30;;;;;;;10.90;9.50;;;;;;;;;;4998858;28;20080;-69
2022/08/18 11:19:09;;;;;;;8.98;8.18;;;;;;;;;;5001652;28;20048;-69
2022/08/18 11:21:35;;;;;;;9.90;8.60;;;;;;;;;;5001443;28;20046;-68
2022/08/18 11:24:04;;;;;;;9.75;8.65;;;;;;;;;;5005254;28;20104;-68
2022/08/18 11:26:33;;;;;;;9.27;7.70;;;;;;;;;;5003924;28;20050;-68
2022/08/18 11:29:00;;;;;;;11.65;8.73;;;;;;;;;;5009325;28;20037;-68
2022/08/18 11:31:26;;;;;;;12.88;7.80;;;;;;;;;;5003645;28;20061;-67
2022/08/18 11:33:52;;;;;;;10.95;7.88;;;;;;;;;;5005139;28;20121;-65
2022/08/18 11:36:29;;;;;;;9.63;7.75;;;;;;;;;;5004825;28;20056;-66
2022/08/18 11:38:55;;;;;;;13.85;9.20;;;;;;;;;;5004991;28;20038;-69
2022/08/18 11:41:26;;;;;;;10.90;8.85;;;;;;;;;;4998886;28;20045;-68
2022/08/18 11:43:59;;;;;;;9.15;8.25;;;;;;;;;;5003512;28;20160;-67
2022/08/18 11:46:31;;;;;;;8.68;7.72;;;;;;;;;;5003959;28;20033;-67
2022/08/18 11:49:12;;;;;;;8.88;7.38;;;;;;;;;;5000800;28;20042;-68
2022/08/18 11:51:53;;;;;;;8.50;7.63;;;;;;;;;;5002315;28;20046;-68
2022/08/18 11:54:21;;;;;;;9.55;7.75;;;;;;;;;;5004396;28;20041;-68
2022/08/18 11:56:47;;;;;;;8.18;6.57;;;;;;;;;;5004064;28;20046;-67
2022/08/18 11:59:24;;;;;;;7.45;6.28;;;;;;;;;;5004399;28;20060;-68
2022/08/18 12:01:54;;;;;;;8.38;6.10;;;;;;;;;;5003480;28;20056;-65
2022/08/18 12:04:22;;;;;;;7.97;6.35;;;;;;;;;;5003514;28;20413;-66
2022/08/18 12:06:50;;;;;;;6.68;6.00;;;;;;;;;;5005378;28;20052;-68
2022/08/18 12:09:33;;;;;;;6.00;5.40;;;;;;;;;;4997496;28;20038;-66
2022/08/18 12:12:05;;;;;;;7.80;7.00;;;;;;;;;;5003426;28;20054;-68
2022/08/18 12:14:33;;;;;;;8.60;6.50;;;;;;;;;;5001457;28;20038;-68
2022/08/18 12:16:59;;;;;;;7.32;6.20;;;;;;;;;;5021939;28;20037;-67
2022/08/18 12:19:29;;;;;;;10.88;6.18;;;;;;;;;;5007716;28;20061;-66
2022/08/18 12:21:57;;;;;;;6.15;5.57;;;;;;;;;;5020325;28;20139;-66
2022/08/18 12:24:25;;;;;;;6.32;5.63;;;;;;;;;;4998784;28;20108;-67
2022/08/18 12:26:51;;;;;;;6.38;5.78;;;;;;;;;;5007163;28;20041;-67
2022/08/18 12:29:17;;;;;;;7.85;5.95;;;;;;;;;;5004764;28;20080;-67
2022/08/18 12:31:49;;;;;;;6.55;5.53;;;;;;;;;;5005849;28;20029;-67
2022/08/18 12:34:19;;;;;;;6.68;6.03;;;;;;;;;;5004288;28;20026;-67
2022/08/18 12:36:45;;;;;;;7.20;5.70;;;;;;;;;;5004575;28;20037;-67
2022/08/18 12:39:10;;;;;;;7.18;5.55;;;;;;;;;;5006326;28;20034;-67
2022/08/18 12:41:36;;;;;;;7.97;5.30;;;;;;;;;;5003815;28;20073;-67
2022/08/18 12:44:03;;;;;;;5.65;5.05;;;;;;;;;;5006126;28;20159;-67
2022/08/18 12:46:29;;;;;;;5.25;4.80;;;;;;;;;;5004040;28;20026;-67
2022/08/18 12:48:55;;;;;;;5.63;5.13;;;;;;;;;;4998714;28;20099;-67
2022/08/18 12:51:20;;;;;;;5.82;4.90;;;;;;;;;;5006291;28;20034;-68
2022/08/18 12:53:46;;;;;;;5.18;4.68;;;;;;;;;;5004720;28;20045;-67
2022/08/18 12:56:21;;;;;;;6.40;5.07;;;;;;;;;;5003574;28;20950;-66
2022/08/18 12:58:48;;;;;;;7.50;5.45;;;;;;;;;;5003216;28;20038;-67
2022/08/18 13:01:14;;;;;;;5.68;5.15;;;;;;;;;;5006785;28;20030;-64
2022/08/18 13:03:40;;;;;;;11.98;5.38;;;;;;;;;;5003511;28;20045;-68
2022/08/18 13:06:05;;;;;;;5.65;4.90;;;;;;;;;;5005805;28;20038;-66
2022/08/18 13:08:31;;;;;;;5.70;5.20;;;;;;;;;;5006647;28;20091;-66
2022/08/18 13:10:59;;;;;;;7.68;5.57;;;;;;;;;;5003980;28;20044;-65
2022/08/18 13:13:25;;;;;;;7.53;5.78;;;;;;;;;;5003871;28;20029;-66
2022/08/18 13:15:52;;;;;;;7.45;5.68;;;;;;;;;;5006159;28;20036;-66
2022/08/18 13:18:18;;;;;;;8.13;6.00;;;;;;;;;;5002877;28;20037;-67
2022/08/18 13:20:46;;;;;;;6.55;5.93;;;;;;;;;;5005001;28;20065;-66
2022/08/18 13:23:11;;;;;;;7.38;5.63;;;;;;;;;;5004663;28;20069;-66
2022/08/18 13:25:38;;;;;;;8.57;5.63;;;;;;;;;;5005335;28;20452;-66
2022/08/18 13:28:04;;;;;;;6.10;5.32;;;;;;;;;;5001683;28;20509;-66
2022/08/18 13:30:30;;;;;;;6.63;5.93;;;;;;;;;;5002571;28;20053;-66
2022/08/18 13:32:56;;;;;;;7.63;6.07;;;;;;;;;;5007514;28;20572;-67
2022/08/18 13:35:21;;;;;;;7.13;5.82;;;;;;;;;;5005811;28;20133;-66
2022/08/18 13:37:47;;;;;;;8.93;5.72;;;;;;;;;;5000690;28;20037;-67
2022/08/18 13:40:13;;;;;;;5.80;5.10;;;;;;;;;;5008174;28;20045;-67
2022/08/18 13:42:48;;;;;;;5.65;5.15;;;;;;;;;;5005172;28;20042;-67
2022/08/18 13:45:20;;;;;;;6.15;5.55;;;;;;;;;;5004163;28;20033;-67
2022/08/18 13:47:46;;;;;;;;;;;;;;;;;;5003301;28;20518;-67
2022/08/18 13:50:11;;;;;;;6.63;5.85;;;;;;;;;;5007315;28;19932;-67
2022/08/18 13:52:38;;;;;;;6.47;5.88;;;;;;;;;;5001717;28;20545;-67
2022/08/18 13:55:08;;;;;;;6.85;5.82;;;;;;;;;;5006664;28;20486;-71
2022/08/18 13:57:33;;;;;;;6.78;6.03;;;;;;;;;;5003515;28;20065;-67
2022/08/18 13:59:58;;;;;;;7.47;5.80;;;;;;;;;;5004642;28;20490;-67
2022/08/18 14:02:24;;;;;;;6.28;5.68;;;;;;;;;;5005086;28;20038;-67
2022/08/18 14:04:50;;;;;;;7.03;6.32;;;;;;;;;;5005815;28;20026;-67
2022/08/18 14:07:16;;;;;;;8.13;6.47;;;;;;;;;;5005000;28;20038;-67
2022/08/18 14:09:42;;;;;;;7.82;6.45;;;;;;;;;;5005444;28;20532;-67
2022/08/18 14:12:20;;;;;;;9.48;6.57;;;;;;;;;;5003542;28;20034;-67
2022/08/18 14:14:45;;;;;;;6.30;5.78;;;;;;;;;;5002557;28;20124;-67
2022/08/18 14:17:11;;;;;;;6.82;6.22;;;;;;;;;;5007862;28;20097;-67
2022/08/18 14:27:48;;;;;;;8.85;7.30;;;;;;;;;;5004009;28;20870;-67
2022/08/18 14:30:13;;;;;;;12.57;8.05;;;;;;;;;;5006526;28;20042;-69
2022/08/18 14:32:40;;;;;;;9.73;8.32;;;;;;;;;;5006086;28;20042;-68
2022/08/18 14:35:08;;;;;;;9.63;8.48;;;;;;;;;;5004752;28;20401;-68
2022/08/18 14:37:33;;;;;;;8.95;8.05;;;;;;;;;;5004804;28;20400;-68
2022/08/18 14:39:59;;;;;;;10.40;8.07;;;;;;;;;;5003380;28;20058;-66
2022/08/18 14:42:25;;;;;;;9.80;8.15;;;;;;;;;;5002279;28;20052;-68
2022/08/18 14:44:50;;;;;;;10.98;8.73;;;;;;;;;;5006785;28;20077;-67
2022/08/18 14:47:16;;;;;;;10.55;8.25;;;;;;;;;;5006342;28;20042;-67
2022/08/18 14:49:42;;;;;;;9.45;8.45;;;;;;;;;;5004595;28;20026;-67
2022/08/18 14:52:09;;;;;;;10.27;8.90;;;;;;;;;;5002012;28;20128;-67
2022/08/18 14:54:35;;;;;;;12.57;8.60;;;;;;;;;;5005965;28;20064;-67
2022/08/18 14:57:01;;;;;;;9.60;8.23;;;;;;;;;;5010242;28;20506;-67
2022/08/18 14:59:29;;;;;;;12.27;10.43;;;;;;;;;;5002105;28;20030;-67
2022/08/18 15:01:56;;;;;;;11.98;10.77;;;;;;;;;;5008423;28;20037;-67
2022/08/18 15:04:21;;;;;;;14.30;11.70;;;;;;;;;;5002915;28;21511;-68
2022/08/18 15:06:48;;;;;;;12.48;10.82;;;;;;;;;;5007152;28;20034;-66
2022/08/18 15:09:13;;;;;;;12.50;11.20;;;;;;;;;;5008719;28;20155;-69
2022/08/18 15:11:39;;;;;;;13.05;10.63;;;;;;;;;;5003708;28;20057;-66
2022/08/18 15:14:04;;;;;;;12.55;9.95;;;;;;;;;;5007353;28;20097;-66
2022/08/18 15:16:33;;;;;;;11.27;9.60;;;;;;;;;;5008794;28;20022;-66
2022/08/18 15:18:59;;;;;;;10.95;9.02;;;;;;;;;;5004660;28;20037;-66
2022/08/18 15:26:56;;;;;;;10.15;8.05;;;;;;;;;;5002858;28;20097;-66
2022/08/18 15:29:21;;;;;;;10.02;8.38;;;;;;;;;;5006387;28;20052;-66
2022/08/18 15:31:49;;;;;;;9.98;8.43;;;;;;;;;;5020900;28;20478;-66
2022/08/18 15:34:15;;;;;;;10.77;8.77;;;;;;;;;;5003525;28;20041;-66
2022/08/18 15:36:41;;;;;;;10.77;9.45;;;;;;;;;;5002253;28;20041;-66
2022/08/18 15:39:07;;;;;;;10.73;8.90;;;;;;;;;;5006315;28;20137;-66